Time;durP1;ratioP1;P1;durP2;ratioP2;P2;SDS_P1;SDS_P2;PMS_P1;PMS_P2;Temp;Humidity;BMP_temperature;BMP_pressure;BME280_temperature;BME280_humidity;BME280_pressure;Samples;Min_cycle;Max_cycle;Signal;HPM_P1;HPM_P2
2020/12/10 06:01:04;;;;;;;78.20;24.70;;;2.20;97.30;;;;;;5837760;23;20491;-71
2020/12/10 06:03:30;;;;;;;71.43;24.40;;;2.20;97.30;;;;;;4935660;29;20412;-72
2020/12/10 06:06:01;;;;;;;76.10;25.20;;;2.20;97.30;;;;;;4934734;29;20228;-71
2020/12/10 06:08:27;;;;;;;85.37;27.00;;;2.20;97.30;;;;;;4936158;29;20420;-70
2020/12/10 06:10:53;;;;;;;75.57;26.50;;;2.20;97.30;;;;;;4930286;29;20961;-71
2020/12/10 06:13:23;;;;;;;89.27;28.93;;;2.20;97.30;;;;;;4917039;29;20175;-70
2020/12/10 06:15:49;;;;;;;76.40;24.87;;;2.20;97.30;;;;;;4915993;29;20435;-71
2020/12/10 06:18:15;;;;;;;84.53;27.27;;;2.20;97.30;;;;;;4899932;29;20773;-71
2020/12/10 06:20:46;;;;;;;76.00;26.20;;;2.20;97.30;;;;;;4916867;29;20448;-70
2020/12/10 06:23:32;;;;;;;80.47;25.97;;;2.20;97.30;;;;;;4915609;29;20439;-71
2020/12/10 06:26:24;;;;;;;79.53;26.13;;;2.20;97.30;;;;;;4915649;29;20960;-71
2020/12/10 06:28:51;;;;;;;80.63;25.63;;;2.20;97.30;;;;;;4908144;29;20432;-70
2020/12/10 06:31:17;;;;;;;83.87;27.43;;;2.20;97.30;;;;;;4915927;29;20531;-73
2020/12/10 06:33:44;;;;;;;90.30;28.87;;;2.20;97.30;;;;;;4917382;29;20573;-72
2020/12/10 06:36:19;;;;;;;90.83;27.40;;;2.50;97.30;;;;;;4915881;29;20421;-70
2020/12/10 06:38:45;;;;;;;85.90;26.77;;;2.70;97.30;;;;;;4916976;29;20506;-73
2020/12/10 06:41:11;;;;;;;94.17;28.50;;;2.80;97.30;;;;;;4915382;29;20553;-69
2020/12/10 06:43:37;;;;;;;97.63;31.40;;;2.70;97.30;;;;;;4916736;29;20933;-70
2020/12/10 06:46:03;;;;;;;125.93;44.87;;;2.70;97.30;;;;;;4915689;29;20316;-71
2020/12/10 06:48:46;;;;;;;113.67;32.10;;;2.60;97.30;;;;;;4916655;29;20460;-72
2020/12/10 06:51:20;;;;;;;99.47;29.57;;;2.50;97.30;;;;;;4915562;29;20444;-71
2020/12/10 06:54:12;;;;;;;92.83;30.37;;;2.40;97.30;;;;;;4915743;29;20941;-71
2020/12/10 06:57:04;;;;;;;124.30;41.03;;;2.30;97.30;;;;;;4912435;29;20432;-71
2020/12/10 06:59:38;;;;;;;101.40;28.60;;;2.20;97.30;;;;;;4915187;29;20476;-71
2020/12/10 07:02:11;;;;;;;114.57;28.30;;;2.20;97.30;;;;;;4916677;29;20511;-70
2020/12/10 07:04:47;;;;;;;99.90;28.17;;;2.10;97.30;;;;;;4915179;29;20417;-69
2020/12/10 07:07:25;;;;;;;96.37;29.07;;;2.10;97.30;;;;;;4915551;29;20404;-68
2020/12/10 07:09:57;;;;;;;113.90;30.13;;;2.00;97.30;;;;;;4915079;29;20408;-68
2020/12/10 07:12:34;;;;;;;102.63;30.63;;;2.00;97.30;;;;;;4915300;29;20445;-68
2020/12/10 07:15:17;;;;;;;117.23;35.30;;;2.10;97.30;;;;;;4915164;29;20790;-69
2020/12/10 07:17:50;;;;;;;98.40;27.10;;;2.10;97.30;;;;;;4915232;29;20492;-69
2020/12/10 07:20:16;;;;;;;102.37;31.20;;;2.00;97.30;;;;;;4916294;29;20922;-69
2020/12/10 07:22:42;;;;;;;102.90;31.47;;;2.00;97.30;;;;;;4918304;29;20429;-69
2020/12/10 07:25:07;;;;;;;94.53;27.90;;;2.00;97.30;;;;;;4918637;29;20456;-69
2020/12/10 07:27:33;;;;;;;109.20;30.20;;;2.10;97.30;;;;;;4918026;29;20179;-69
2020/12/10 07:29:59;;;;;;;105.23;26.40;;;2.10;97.30;;;;;;4919361;29;20253;-69
2020/12/10 07:32:24;;;;;;;98.00;27.30;;;2.10;97.30;;;;;;4919465;29;20199;-69
2020/12/10 07:34:50;;;;;;;105.53;29.47;;;2.10;97.30;;;;;;4918334;29;20185;-69
2020/12/10 07:37:17;;;;;;;103.30;27.40;;;2.00;97.30;;;;;;4918289;29;20722;-69
2020/12/10 07:39:44;;;;;;;97.80;30.57;;;1.90;97.30;;;;;;4918360;29;20180;-69
2020/12/10 07:42:18;;;;;;;115.47;29.03;;;2.00;97.30;;;;;;4919520;29;20479;-73
2020/12/10 07:44:44;;;;;;;108.53;28.73;;;2.00;97.30;;;;;;4918837;29;20954;-69
2020/12/10 07:47:11;;;;;;;93.67;27.40;;;2.00;97.30;;;;;;4919449;29;20452;-69
2020/12/10 07:49:38;;;;;;;76.20;25.07;;;2.00;97.30;;;;;;4917759;29;20185;-69
2020/12/10 07:52:13;;;;;;;86.67;26.67;;;2.00;97.30;;;;;;4918921;29;20456;-69
2020/12/10 07:54:51;;;;;;;94.70;25.93;;;2.10;97.30;;;;;;4918887;29;20435;-69
2020/12/10 07:57:30;;;;;;;91.37;25.20;;;2.10;97.30;;;;;;4918657;29;20768;-70
2020/12/10 08:00:07;;;;;;;95.57;26.03;;;2.10;97.30;;;;;;4918278;29;20946;-69
2020/12/10 08:03:03;;;;;;;99.70;28.27;;;2.00;97.30;;;;;;4918729;29;20499;-69
2020/12/10 08:05:29;;;;;;;98.70;28.00;;;2.10;97.30;;;;;;4918676;29;20848;-70
2020/12/10 08:07:56;;;;;;;110.00;29.67;;;2.10;97.30;;;;;;4917706;29;20464;-69
2020/12/10 08:10:24;;;;;;;92.80;28.47;;;2.10;97.30;;;;;;4919006;29;20408;-69
2020/12/10 08:13:30;;;;;;;81.83;25.63;;;2.10;97.30;;;;;;4918555;29;20421;-70
2020/12/10 08:16:07;;;;;;;96.03;31.10;;;2.10;97.30;;;;;;4860736;29;20499;-69
2020/12/10 08:18:33;;;;;;;99.77;28.57;;;2.10;97.30;;;;;;4912684;29;20424;-69
2020/12/10 08:21:00;;;;;;;107.37;29.20;;;2.00;97.30;;;;;;4916982;29;20447;-70
2020/12/10 08:23:26;;;;;;;95.67;28.27;;;2.00;97.30;;;;;;4917547;29;20479;-71
2020/12/10 08:26:12;;;;;;;89.80;28.57;;;2.00;97.30;;;;;;4917439;29;21021;-69
2020/12/10 08:28:38;;;;;;;111.07;27.17;;;2.00;97.30;;;;;;4916974;29;20183;-69
2020/12/10 08:31:05;;;;;;;91.73;28.03;;;2.00;97.30;;;;;;4917380;29;20973;-70
2020/12/10 08:33:36;;;;;;;84.43;24.60;;;2.10;97.30;;;;;;4916388;29;20415;-70
2020/12/10 08:36:03;;;;;;;85.73;27.37;;;2.10;97.30;;;;;;4916954;29;20437;-70
2020/12/10 08:38:29;;;;;;;90.60;30.50;;;2.00;97.30;;;;;;4918375;29;20416;-69
2020/12/10 08:40:57;;;;;;;93.13;29.73;;;2.10;97.30;;;;;;4918317;29;20464;-70
2020/12/10 08:43:23;;;;;;;99.27;31.93;;;2.10;97.30;;;;;;4916805;29;20413;-70
2020/12/10 08:45:49;;;;;;;94.87;27.47;;;2.10;97.30;;;;;;4918199;29;21043;-69
2020/12/10 08:48:29;;;;;;;81.33;27.33;;;2.00;97.30;;;;;;4916485;29;20435;-70
2020/12/10 08:50:59;;;;;;;84.97;26.00;;;2.00;97.30;;;;;;4917666;29;20207;-69
2020/12/10 08:53:25;;;;;;;81.73;25.17;;;2.00;97.30;;;;;;4916456;29;20420;-70
2020/12/10 08:55:54;;;;;;;82.33;28.00;;;2.00;97.30;;;;;;4918034;29;20409;-69
2020/12/10 08:58:28;;;;;;;84.93;26.00;;;2.00;97.30;;;;;;4916691;29;21002;-70
2020/12/10 09:00:56;;;;;;;92.13;26.10;;;2.00;97.30;;;;;;4916684;29;20450;-70
2020/12/10 09:03:22;;;;;;;85.30;24.50;;;2.00;97.30;;;;;;4916776;29;20800;-70
2020/12/10 09:05:49;;;;;;;93.43;27.67;;;2.00;97.30;;;;;;4916696;29;20600;-70
2020/12/10 09:08:15;;;;;;;82.37;26.47;;;2.10;97.30;;;;;;4917992;29;20420;-70
2020/12/10 09:10:41;;;;;;;77.90;26.20;;;2.10;97.30;;;;;;4916629;29;20436;-70
2020/12/10 09:13:08;;;;;;;80.93;25.47;;;2.10;97.30;;;;;;4917770;29;20172;-69
2020/12/10 09:15:34;;;;;;;72.53;24.40;;;2.20;97.30;;;;;;4916678;29;20185;-70
2020/12/10 09:18:00;;;;;;;86.37;27.07;;;2.20;97.30;;;;;;4916590;29;20945;-70
2020/12/10 09:20:26;;;;;;;86.20;26.10;;;2.20;97.30;;;;;;4916436;29;20500;-70
2020/12/10 09:22:52;;;;;;;98.60;29.83;;;2.20;97.30;;;;;;4916609;29;20219;-70
2020/12/10 09:25:17;;;;;;;76.50;24.07;;;2.20;97.30;;;;;;4917465;29;20492;-70
2020/12/10 09:27:43;;;;;;;86.43;31.00;;;2.20;97.30;;;;;;4916435;29;20264;-70
2020/12/10 09:30:11;;;;;;;79.13;26.83;;;2.30;97.30;;;;;;4916274;29;20647;-70
2020/12/10 09:32:39;;;;;;;86.40;28.13;;;2.30;97.30;;;;;;4917543;29;20199;-70
2020/12/10 09:35:07;;;;;;;69.77;23.43;;;2.40;97.30;;;;;;4916018;29;20428;-70
2020/12/10 09:37:34;;;;;;;78.67;26.23;;;2.30;97.30;;;;;;4916302;29;20428;-70
2020/12/10 09:40:00;;;;;;;70.63;23.87;;;2.30;97.30;;;;;;4916309;29;20969;-70
2020/12/10 09:42:26;;;;;;;75.73;23.87;;;2.40;97.30;;;;;;4916392;29;20445;-70
2020/12/10 09:44:51;;;;;;;79.80;25.83;;;2.30;97.30;;;;;;4915887;29;20196;-69
2020/12/10 09:47:17;;;;;;;75.00;24.60;;;2.30;97.30;;;;;;4916102;29;20180;-70
2020/12/10 09:49:43;;;;;;;93.47;28.63;;;2.20;97.30;;;;;;4915942;29;20689;-70
2020/12/10 09:52:09;;;;;;;80.93;25.50;;;2.20;97.30;;;;;;4917121;29;20196;-70
2020/12/10 09:57:24;;;;;;;65.43;22.67;;;2.20;97.30;;;;;;4917546;29;20416;-70
2020/12/10 09:59:49;;;;;;;73.40;24.33;;;2.20;97.30;;;;;;4917255;29;20466;-70
2020/12/10 10:02:18;;;;;;;74.60;23.07;;;2.10;97.30;;;;;;4916894;29;20456;-71
2020/12/10 10:04:44;;;;;;;78.10;24.90;;;2.10;97.30;;;;;;4915589;29;20656;-70
2020/12/10 10:07:10;;;;;;;87.67;24.33;;;2.20;97.30;;;;;;4916949;29;20417;-70
2020/12/10 10:09:38;;;;;;;78.80;22.80;;;2.20;97.30;;;;;;4917110;29;20472;-70
2020/12/10 10:12:05;;;;;;;86.20;31.97;;;2.20;97.30;;;;;;4916702;29;20488;-69
2020/12/10 10:14:34;;;;;;;80.87;24.90;;;2.10;97.30;;;;;;4915763;29;20420;-69
2020/12/10 10:17:00;;;;;;;72.00;24.37;;;2.10;97.30;;;;;;4916837;29;20476;-69
2020/12/10 10:19:26;;;;;;;77.57;24.30;;;2.10;97.30;;;;;;4916948;29;20464;-69
2020/12/10 10:21:54;;;;;;;69.13;23.83;;;2.20;97.30;;;;;;4915543;29;20583;-69
2020/12/10 10:24:20;;;;;;;84.37;27.30;;;2.20;97.30;;;;;;4915590;29;20428;-69
2020/12/10 10:26:47;;;;;;;79.87;24.60;;;2.20;97.30;;;;;;4916855;29;20833;-69
2020/12/10 10:29:18;;;;;;;76.73;24.10;;;2.20;97.30;;;;;;4915671;29;20189;-69
2020/12/10 10:31:44;;;;;;;82.73;25.77;;;2.20;97.30;;;;;;4915481;29;20472;-69
2020/12/10 10:34:10;;;;;;;85.63;24.70;;;2.20;97.30;;;;;;4916557;29;20475;-69
2020/12/10 10:36:35;;;;;;;96.30;27.27;;;2.20;97.30;;;;;;4916429;29;20188;-69
2020/12/10 10:39:01;;;;;;;75.87;25.67;;;2.20;97.30;;;;;;4915572;29;20534;-69
2020/12/10 10:41:27;;;;;;;84.50;26.20;;;2.30;97.30;;;;;;4915239;29;20639;-69
2020/12/10 10:43:52;;;;;;;75.77;23.70;;;2.30;97.30;;;;;;4897592;29;20269;-69
2020/12/10 10:46:19;;;;;;;73.43;26.40;;;2.30;97.30;;;;;;4896338;29;20235;-69
2020/12/10 10:48:45;;;;;;;79.27;26.70;;;2.30;97.30;;;;;;4896550;29;20241;-70
2020/12/10 10:51:11;;;;;;;86.47;25.90;;;2.30;97.30;;;;;;4895921;29;20464;-69
2020/12/10 10:53:38;;;;;;;84.00;26.47;;;2.30;97.30;;;;;;4913882;29;20907;-69
2020/12/10 10:56:04;;;;;;;74.33;23.87;;;2.30;97.30;;;;;;4916508;29;20493;-70
2020/12/10 10:58:30;;;;;;;92.47;28.83;;;2.30;97.30;;;;;;4919813;29;20444;-69
2020/12/10 11:00:55;;;;;;;87.07;25.97;;;2.30;97.30;;;;;;4919835;29;20208;-69
2020/12/10 11:03:21;;;;;;;83.43;26.20;;;2.20;97.30;;;;;;4918169;29;20813;-70
2020/12/10 11:05:47;;;;;;;81.20;26.80;;;2.20;97.30;;;;;;4917918;29;20208;-70
2020/12/10 11:08:12;;;;;;;84.17;27.80;;;2.20;97.30;;;;;;4919561;29;20188;-71
2020/12/10 11:10:38;;;;;;;86.33;27.10;;;2.20;97.30;;;;;;4920705;29;20279;-70
2020/12/10 11:13:04;;;;;;;99.40;26.07;;;2.10;97.30;;;;;;4918993;29;20546;-70
2020/12/10 11:15:31;;;;;;;87.40;26.73;;;2.00;97.30;;;;;;4918950;29;20195;-70
2020/12/10 11:17:57;;;;;;;89.23;25.10;;;2.00;97.30;;;;;;4919893;29;20922;-71
2020/12/10 11:20:23;;;;;;;88.93;26.80;;;2.00;97.30;;;;;;4918703;29;20435;-70
2020/12/10 11:22:49;;;;;;;89.83;28.80;;;2.10;97.30;;;;;;4919910;29;20851;-71
2020/12/10 11:25:14;;;;;;;89.83;25.27;;;2.00;97.30;;;;;;4918722;29;20456;-70
2020/12/10 11:27:40;;;;;;;101.27;27.63;;;2.00;97.30;;;;;;4920020;29;20173;-70
2020/12/10 11:30:06;;;;;;;87.80;25.33;;;2.00;97.30;;;;;;4918851;29;20181;-70
2020/12/10 11:32:32;;;;;;;80.13;26.73;;;2.10;97.30;;;;;;4918498;29;20574;-70
2020/12/10 11:34:58;;;;;;;77.97;27.00;;;2.10;97.30;;;;;;4918586;29;20545;-70
2020/12/10 11:37:23;;;;;;;86.97;25.70;;;2.10;97.30;;;;;;4919826;29;20638;-71
2020/12/10 11:39:54;;;;;;;84.27;25.57;;;2.10;97.30;;;;;;4919155;29;20543;-70
2020/12/10 11:42:20;;;;;;;82.07;25.47;;;2.10;97.30;;;;;;4916187;29;20666;-70
2020/12/10 11:44:47;;;;;;;90.00;27.20;;;2.10;97.30;;;;;;4918220;29;20488;-70
2020/12/10 11:47:13;;;;;;;94.47;29.63;;;2.00;97.30;;;;;;4919580;29;20433;-70
2020/12/10 11:49:39;;;;;;;95.70;27.63;;;2.00;97.30;;;;;;4919059;29;20917;-70
2020/12/10 11:52:04;;;;;;;81.07;25.50;;;2.00;97.30;;;;;;4918255;29;20717;-70
2020/12/10 11:54:30;;;;;;;87.97;28.20;;;2.00;97.30;;;;;;4917771;29;20529;-70
2020/12/10 11:56:57;;;;;;;93.30;28.70;;;2.00;97.30;;;;;;4919415;29;20207;-70
2020/12/10 11:59:24;;;;;;;89.90;27.80;;;1.90;97.30;;;;;;4918008;29;20439;-70
2020/12/10 12:01:50;;;;;;;84.37;29.97;;;1.90;97.30;;;;;;4917861;29;20547;-70
2020/12/10 12:04:16;;;;;;;92.83;28.30;;;1.90;97.30;;;;;;4915737;29;20853;-70
2020/12/10 12:06:41;;;;;;;83.83;28.00;;;1.90;97.30;;;;;;4917125;29;20559;-70
2020/12/10 12:09:07;;;;;;;99.13;29.80;;;1.90;97.30;;;;;;4916762;29;20287;-70
2020/12/10 12:11:33;;;;;;;96.87;31.00;;;1.90;97.30;;;;;;4919714;29;20224;-70
2020/12/10 12:13:59;;;;;;;95.20;31.83;;;1.90;97.30;;;;;;4916830;29;20187;-71
2020/12/10 12:16:25;;;;;;;81.80;26.23;;;1.90;97.30;;;;;;4917513;29;20208;-70
2020/12/10 12:18:51;;;;;;;91.23;27.60;;;1.80;97.30;;;;;;4916648;29;20957;-69
2020/12/10 12:21:26;;;;;;;92.13;28.60;;;2.00;97.30;;;;;;4917634;29;20577;-71
2020/12/10 12:23:53;;;;;;;91.87;29.03;;;2.00;97.30;;;;;;4919072;29;20689;-70
2020/12/10 12:26:27;;;;;;;82.10;27.27;;;1.90;97.30;;;;;;4917558;29;20475;-70
2020/12/10 12:28:52;;;;;;;86.90;27.10;;;1.90;97.30;;;;;;4917591;29;20919;-70
2020/12/10 12:31:18;;;;;;;91.23;27.10;;;1.90;97.30;;;;;;4917412;29;20445;-70
2020/12/10 12:33:43;;;;;;;86.23;26.83;;;2.00;97.30;;;;;;4917313;29;20181;-70
2020/12/10 12:36:10;;;;;;;78.80;28.00;;;2.00;97.30;;;;;;4917478;29;20184;-70
2020/12/10 12:38:36;;;;;;;97.30;28.60;;;2.00;97.30;;;;;;4917943;29;20181;-70
2020/12/10 12:41:02;;;;;;;104.47;33.90;;;2.00;97.30;;;;;;4917310;29;20450;-70
2020/12/10 12:43:29;;;;;;;93.47;36.47;;;2.00;97.30;;;;;;4918257;29;20172;-70
2020/12/10 12:45:54;;;;;;;80.90;27.03;;;2.00;97.30;;;;;;4917463;29;20865;-71
2020/12/10 12:48:20;;;;;;;90.57;26.60;;;2.00;97.30;;;;;;4918407;29;20425;-71
2020/12/10 12:50:46;;;;;;;82.93;28.73;;;2.00;97.30;;;;;;4916651;29;20200;-70
2020/12/10 12:53:14;;;;;;;74.90;26.20;;;2.00;97.30;;;;;;4916088;29;20389;-71
2020/12/10 12:55:40;;;;;;;82.93;27.10;;;2.00;97.30;;;;;;4918354;29;20416;-70
2020/12/10 12:58:06;;;;;;;77.47;26.40;;;2.00;97.30;;;;;;4916897;29;20934;-70
2020/12/10 13:00:31;;;;;;;95.93;30.30;;;2.00;97.30;;;;;;4916977;29;20192;-70
2020/12/10 13:02:57;;;;;;;96.40;29.43;;;1.90;97.30;;;;;;4916881;29;20204;-70
2020/12/10 13:05:23;;;;;;;94.83;29.00;;;1.90;97.30;;;;;;4918113;29;20240;-70
2020/12/10 13:07:48;;;;;;;93.43;29.67;;;1.90;97.30;;;;;;4916876;29;20601;-70
2020/12/10 13:10:14;;;;;;;87.40;28.17;;;1.90;97.30;;;;;;4916647;29;20212;-71
2020/12/10 13:12:40;;;;;;;84.90;28.63;;;2.00;97.30;;;;;;4916405;29;20188;-70
2020/12/10 13:15:06;;;;;;;87.20;29.60;;;2.00;97.30;;;;;;4917544;29;20244;-71
2020/12/10 13:17:32;;;;;;;87.30;26.00;;;1.90;97.30;;;;;;4917821;29;20220;-71
2020/12/10 13:19:59;;;;;;;87.60;26.70;;;1.90;97.30;;;;;;4916308;29;20271;-70
2020/12/10 13:22:24;;;;;;;75.50;26.33;;;1.90;97.30;;;;;;4917743;29;21000;-70
2020/12/10 13:24:50;;;;;;;79.47;26.77;;;1.90;97.30;;;;;;4917510;29;20425;-70
2020/12/10 13:27:16;;;;;;;89.10;28.47;;;1.80;97.30;;;;;;4917815;29;20444;-70
2020/12/10 13:29:42;;;;;;;76.13;27.10;;;1.80;97.30;;;;;;4916362;29;20184;-71
2020/12/10 13:32:07;;;;;;;89.27;26.33;;;1.70;97.30;;;;;;4916484;29;20347;-70
2020/12/10 13:34:33;;;;;;;94.27;28.63;;;1.80;97.30;;;;;;4915989;29;20592;-70
2020/12/10 13:36:59;;;;;;;96.77;37.70;;;1.80;97.30;;;;;;4916405;29;20190;-70
2020/12/10 13:39:25;;;;;;;95.23;32.37;;;1.80;97.30;;;;;;4916263;29;20192;-70
2020/12/10 13:41:50;;;;;;;92.00;30.47;;;1.80;97.30;;;;;;4916410;29;20970;-70
2020/12/10 13:44:16;;;;;;;76.43;26.13;;;1.80;97.30;;;;;;4915989;29;20235;-70
2020/12/10 13:46:42;;;;;;;95.77;29.70;;;1.80;97.30;;;;;;4917297;29;20210;-70
2020/12/10 13:49:07;;;;;;;88.67;26.03;;;1.90;97.30;;;;;;4915900;29;20240;-70
2020/12/10 13:51:33;;;;;;;85.93;28.00;;;1.90;97.30;;;;;;4917217;29;20220;-69
2020/12/10 13:53:59;;;;;;;84.13;26.43;;;1.90;97.30;;;;;;4916963;29;20204;-70
2020/12/10 13:56:25;;;;;;;74.70;26.47;;;1.90;97.30;;;;;;4917293;29;20232;-70
2020/12/10 13:58:51;;;;;;;78.97;24.67;;;2.00;97.30;;;;;;4917168;29;20412;-69
2020/12/10 14:01:17;;;;;;;80.87;26.80;;;2.00;97.30;;;;;;4915185;29;20262;-69
2020/12/10 14:03:44;;;;;;;89.53;26.60;;;2.00;97.30;;;;;;4915967;29;20425;-70
2020/12/10 14:06:22;;;;;;;73.33;26.57;;;2.00;97.30;;;;;;4915092;29;20480;-69
2020/12/10 14:08:48;;;;;;;77.23;27.00;;;2.10;97.30;;;;;;4915109;29;20428;-69
2020/12/10 14:11:21;;;;;;;77.20;25.77;;;2.00;97.30;;;;;;4915141;29;20485;-70
2020/12/10 14:13:46;;;;;;;84.50;27.33;;;2.00;97.30;;;;;;4916019;29;20408;-69
2020/12/10 14:16:15;;;;;;;72.83;27.40;;;2.00;97.30;;;;;;4915290;29;20432;-70
2020/12/10 14:18:41;;;;;;;84.70;28.40;;;2.00;97.30;;;;;;4915920;29;20619;-70
2020/12/10 14:21:07;;;;;;;85.40;29.40;;;2.00;97.30;;;;;;4915315;29;20439;-70
2020/12/10 14:23:32;;;;;;;77.07;25.73;;;2.00;97.30;;;;;;4915506;29;20556;-70
2020/12/10 14:25:58;;;;;;;70.50;25.73;;;2.00;97.30;;;;;;4915655;29;20216;-70
2020/12/10 14:28:23;;;;;;;80.43;26.93;;;2.00;97.30;;;;;;4915221;29;20605;-70
2020/12/10 14:30:49;;;;;;;74.20;26.77;;;2.00;97.30;;;;;;4914541;29;20678;-70
2020/12/10 14:33:15;;;;;;;80.23;27.83;;;2.00;97.30;;;;;;4915236;29;20686;-70
2020/12/10 14:35:51;;;;;;;86.20;28.27;;;1.90;97.30;;;;;;4916738;29;20236;-70
2020/12/10 14:38:21;;;;;;;77.30;26.30;;;1.90;97.30;;;;;;4916363;29;20251;-70
2020/12/10 14:40:47;;;;;;;84.50;28.67;;;1.90;97.30;;;;;;4915482;29;20452;-70
2020/12/10 14:43:13;;;;;;;84.07;28.57;;;1.90;97.30;;;;;;4915321;29;20529;-70
2020/12/10 14:45:38;;;;;;;78.17;28.00;;;1.90;97.30;;;;;;4915216;29;20208;-70
2020/12/10 14:48:04;;;;;;;92.80;30.20;;;1.90;97.30;;;;;;4914610;29;20299;-71
2020/12/10 14:50:30;;;;;;;80.40;26.87;;;1.90;97.30;;;;;;4915188;29;20239;-70
2020/12/10 14:52:55;;;;;;;79.67;25.43;;;1.90;97.30;;;;;;4915490;29;20235;-70
2020/12/10 14:55:25;;;;;;;83.50;26.10;;;1.90;97.30;;;;;;4915126;29;20208;-71
2020/12/10 14:57:51;;;;;;;80.67;29.37;;;1.90;97.30;;;;;;4915554;29;20187;-70
2020/12/10 15:00:17;;;;;;;96.27;28.60;;;1.90;97.30;;;;;;4916465;29;20416;-70
2020/12/10 15:02:42;;;;;;;96.80;30.77;;;1.90;97.30;;;;;;4916530;29;20279;-70
2020/12/10 15:05:08;;;;;;;80.73;26.90;;;1.90;97.30;;;;;;4915269;29;20274;-70
2020/12/10 15:07:34;;;;;;;90.83;26.63;;;2.00;97.30;;;;;;4915486;29;20476;-71
2020/12/10 15:10:00;;;;;;;88.53;28.57;;;2.00;97.30;;;;;;4915317;29;20180;-70
2020/12/10 15:12:26;;;;;;;94.17;29.60;;;2.00;97.30;;;;;;4915065;29;20436;-70
2020/12/10 15:14:51;;;;;;;78.00;24.83;;;1.90;97.30;;;;;;4915169;29;20187;-71
2020/12/10 15:17:17;;;;;;;93.13;27.43;;;1.90;97.30;;;;;;4915136;29;20177;-71
2020/12/10 15:19:43;;;;;;;87.80;26.33;;;1.90;97.30;;;;;;4916213;29;20180;-71
2020/12/10 15:22:08;;;;;;;89.03;27.60;;;1.90;97.30;;;;;;4916343;29;20248;-71
2020/12/10 15:24:39;;;;;;;93.30;27.20;;;1.90;97.30;;;;;;4914975;29;20184;-70
2020/12/10 15:27:08;;;;;;;94.40;28.90;;;1.90;97.30;;;;;;4914919;29;20208;-70
2020/12/10 15:29:35;;;;;;;88.23;26.93;;;1.90;97.30;;;;;;4916278;29;20821;-71
2020/12/10 15:32:02;;;;;;;99.70;29.90;;;1.90;97.30;;;;;;4914809;29;20857;-70
2020/12/10 15:34:28;;;;;;;99.53;29.33;;;1.90;97.30;;;;;;4914633;29;20428;-71
2020/12/10 15:37:00;;;;;;;91.80;30.17;;;1.90;97.30;;;;;;4914899;29;20957;-70
2020/12/10 15:39:27;;;;;;;90.47;29.83;;;1.90;97.30;;;;;;4914812;29;20425;-71
2020/12/10 15:42:00;;;;;;;96.50;27.03;;;2.00;97.30;;;;;;4915427;29;20448;-71
2020/12/10 15:44:26;;;;;;;84.53;30.13;;;2.00;97.30;;;;;;4919444;29;20419;-70
2020/12/10 15:46:53;;;;;;;91.60;28.20;;;2.00;97.30;;;;;;4918008;29;20456;-70
2020/12/10 15:49:22;;;;;;;100.30;29.30;;;2.00;97.30;;;;;;4918228;29;20428;-70
2020/12/10 15:51:56;;;;;;;87.13;28.80;;;2.00;97.30;;;;;;4918108;29;20783;-70
2020/12/10 15:54:23;;;;;;;97.70;30.70;;;2.20;97.30;;;;;;4917767;29;20420;-70
2020/12/10 15:56:50;;;;;;;96.27;32.40;;;2.20;97.30;;;;;;4917915;29;20428;-71
2020/12/10 15:59:16;;;;;;;91.53;29.87;;;2.20;97.30;;;;;;4917856;29;20452;-71
2020/12/10 16:01:44;;;;;;;95.20;29.20;;;2.20;97.30;;;;;;4919159;29;20461;-71
2020/12/10 16:04:10;;;;;;;93.07;30.70;;;2.20;97.30;;;;;;4917790;29;20507;-70
2020/12/10 16:06:35;;;;;;;90.70;29.73;;;2.20;97.30;;;;;;4919059;29;20600;-70
2020/12/10 16:09:01;;;;;;;79.40;26.40;;;2.20;97.30;;;;;;4917944;29;20188;-71
2020/12/10 16:11:27;;;;;;;88.77;28.60;;;2.20;97.30;;;;;;4918922;29;20193;-71
2020/12/10 16:13:53;;;;;;;87.20;28.20;;;2.20;97.30;;;;;;4917633;29;20177;-70
2020/12/10 16:16:19;;;;;;;77.13;26.70;;;2.20;97.30;;;;;;4917896;29;20599;-71
2020/12/10 16:18:45;;;;;;;89.60;29.40;;;2.20;97.30;;;;;;4917812;29;20421;-71
2020/12/10 16:21:11;;;;;;;86.30;27.07;;;2.20;97.30;;;;;;4918837;29;20497;-71
2020/12/10 16:23:38;;;;;;;83.70;27.60;;;2.10;97.30;;;;;;4917539;29;20551;-71
2020/12/10 16:26:04;;;;;;;77.17;25.47;;;2.10;97.30;;;;;;4917524;29;20551;-71
2020/12/10 16:28:30;;;;;;;79.87;25.93;;;2.10;97.30;;;;;;4918877;29;20412;-71
2020/12/10 16:30:56;;;;;;;81.50;28.03;;;2.10;97.30;;;;;;4917416;29;20437;-71
2020/12/10 16:33:22;;;;;;;90.93;27.60;;;2.10;97.30;;;;;;4917411;29;20427;-71
2020/12/10 16:35:49;;;;;;;85.63;28.10;;;2.10;97.30;;;;;;4918577;29;20419;-70
2020/12/10 16:38:16;;;;;;;84.67;26.00;;;2.10;97.30;;;;;;4917389;29;20886;-70
2020/12/10 16:40:41;;;;;;;76.73;25.80;;;2.10;97.30;;;;;;4917246;29;20961;-70
2020/12/10 16:43:07;;;;;;;84.37;28.20;;;2.10;97.30;;;;;;4916855;29;20412;-70
2020/12/10 16:45:33;;;;;;;89.70;26.43;;;2.10;97.30;;;;;;4917132;29;20464;-70
2020/12/10 16:47:59;;;;;;;82.00;26.40;;;2.10;97.30;;;;;;4917100;29;20184;-71
2020/12/10 16:50:24;;;;;;;102.97;30.70;;;2.10;97.30;;;;;;4916961;29;20184;-71
2020/12/10 16:52:52;;;;;;;89.30;28.27;;;2.20;97.30;;;;;;4917051;29;20465;-70
2020/12/10 16:55:18;;;;;;;83.00;26.50;;;2.10;97.30;;;;;;4916011;29;20189;-70
2020/12/10 16:57:45;;;;;;;82.37;26.27;;;2.10;97.30;;;;;;4916840;29;20449;-70
2020/12/10 17:00:11;;;;;;;86.20;29.83;;;2.10;97.30;;;;;;4918122;29;20910;-70
2020/12/10 17:02:37;;;;;;;93.03;27.87;;;2.10;97.30;;;;;;4916554;29;20467;-71
2020/12/10 17:05:03;;;;;;;99.80;31.13;;;2.00;97.30;;;;;;4916624;29;20188;-70
2020/12/10 17:07:32;;;;;;;97.47;31.13;;;2.00;97.30;;;;;;4916855;29;20734;-70
2020/12/10 17:09:58;;;;;;;92.30;27.57;;;2.00;97.30;;;;;;4918052;29;20464;-70
2020/12/10 17:12:24;;;;;;;99.37;29.30;;;2.00;97.30;;;;;;4916528;29;20444;-71
2020/12/10 17:14:50;;;;;;;95.10;27.67;;;2.00;97.30;;;;;;4916600;29;20409;-71
2020/12/10 17:17:16;;;;;;;94.13;28.80;;;2.00;97.30;;;;;;4917788;29;20923;-70
2020/12/10 17:19:42;;;;;;;111.13;30.87;;;2.00;97.30;;;;;;4918204;29;20215;-71
2020/12/10 17:22:08;;;;;;;99.90;28.40;;;2.00;97.30;;;;;;4916393;29;20437;-71
2020/12/10 17:24:34;;;;;;;93.43;29.90;;;2.00;97.30;;;;;;4916548;29;20556;-71
2020/12/10 17:27:00;;;;;;;91.97;30.77;;;2.00;97.30;;;;;;4917606;29;20452;-71
2020/12/10 17:29:25;;;;;;;108.30;31.03;;;2.00;97.30;;;;;;4915831;29;20191;-71
2020/12/10 17:31:51;;;;;;;98.50;31.33;;;1.90;97.30;;;;;;4917115;29;20200;-70
2020/12/10 17:34:17;;;;;;;106.10;31.00;;;1.90;97.30;;;;;;4915663;29;20207;-71
2020/12/10 17:36:43;;;;;;;97.83;29.27;;;2.00;97.30;;;;;;4915570;29;20511;-71
2020/12/10 17:39:08;;;;;;;97.77;30.90;;;2.00;97.30;;;;;;4916004;29;20193;-71
2020/12/10 17:41:34;;;;;;;90.67;27.87;;;2.00;97.30;;;;;;4917490;29;20196;-70
2020/12/10 17:44:00;;;;;;;96.10;31.40;;;2.00;97.30;;;;;;4915490;29;20183;-71
2020/12/10 17:46:25;;;;;;;107.43;30.60;;;2.00;97.30;;;;;;4915393;29;20213;-71
2020/12/10 17:48:51;;;;;;;101.77;30.43;;;2.00;97.30;;;;;;4916860;29;20197;-71
2020/12/10 17:51:18;;;;;;;97.67;30.50;;;2.00;97.30;;;;;;4915374;29;20662;-71
2020/12/10 17:53:44;;;;;;;91.53;29.83;;;2.00;97.30;;;;;;4916678;29;20420;-71
2020/12/10 17:56:10;;;;;;;104.77;30.43;;;2.00;97.30;;;;;;4916691;29;20413;-71
2020/12/10 17:58:36;;;;;;;100.73;28.40;;;2.00;97.30;;;;;;4915410;29;20519;-71
2020/12/10 18:01:06;;;;;;;93.70;28.87;;;2.00;97.30;;;;;;4915334;29;20209;-71
2020/12/10 18:03:32;;;;;;;102.70;31.50;;;2.00;97.30;;;;;;4915274;29;20933;-71
2020/12/10 18:05:57;;;;;;;103.60;31.60;;;2.00;97.30;;;;;;4915876;29;20460;-71
2020/12/10 18:08:23;;;;;;;89.50;28.70;;;2.00;97.30;;;;;;4916606;29;20243;-70
2020/12/10 18:10:50;;;;;;;95.67;31.60;;;2.00;97.30;;;;;;4915671;29;20210;-71
2020/12/10 18:13:15;;;;;;;98.90;29.40;;;2.00;97.30;;;;;;4915360;29;20449;-71
2020/12/10 18:15:41;;;;;;;103.90;29.73;;;2.00;97.30;;;;;;4915462;29;20460;-71
2020/12/10 18:18:07;;;;;;;102.23;29.20;;;2.00;97.30;;;;;;4915408;29;20185;-71
2020/12/10 18:20:33;;;;;;;97.63;30.17;;;2.00;97.30;;;;;;4917016;29;20561;-70
2020/12/10 18:22:59;;;;;;;109.10;32.90;;;2.00;97.30;;;;;;4916607;29;20215;-71
2020/12/10 18:25:25;;;;;;;99.57;29.80;;;2.00;97.30;;;;;;4915400;29;20496;-70
2020/12/10 18:27:51;;;;;;;95.00;27.07;;;2.00;97.30;;;;;;4915616;29;20224;-70
2020/12/10 18:30:16;;;;;;;94.17;32.47;;;2.00;97.30;;;;;;4915435;29;20566;-71
2020/12/10 18:32:42;;;;;;;95.67;28.80;;;2.00;97.30;;;;;;4915475;29;20429;-70
2020/12/10 18:35:08;;;;;;;105.77;28.63;;;2.00;97.30;;;;;;4915208;29;20176;-70
2020/12/10 18:37:35;;;;;;;87.37;29.23;;;2.00;97.30;;;;;;4915424;29;20180;-70
2020/12/10 18:40:02;;;;;;;80.93;27.83;;;2.00;97.30;;;;;;4916811;29;20421;-70